Bagwell, TX (75412)

7:39 PM CDT on April 21, 2018 (GMT -0500)
The Farm | | Change Station
Active Advisory: Flood Warning

Elev 430 ft 33.79 °N, 95.09 °W | Updated 1 minute ago

Overcast
Overcast
56.3 °F
Feels Like 56.3 °F
N
1.7
Wind Variable Wind from WSW

Today
High -- | Low -- °F
--% Chance of Precip.
Yesterday
High -- | Low -- °F
Precip. -- in
Pressure 29.97 in
Visibility 10.0 miles
Clouds Mostly Cloudy 600 ft
Overcast 2300 ft
Dew Point 56 °F
Humidity 99%
Rainfall 0.75 in
Snow Depth Not available.
6:42 AM 7:56 PM
Waxing Crescent, 40% visible
METAR K4O4 220035Z AUTO 09006KT 10SM BKN006 OVC023 12/11 A2997 RMK AO2 P0001
Pressure 29.97 in
Visibility 10.0 miles
Clouds Mostly Cloudy 600 ft
Overcast 2300 ft
Dew Point 56 °F
Humidity 99%
Rainfall 0.75 in
Snow Depth Not available.
6:42 AM 7:56 PM
Waxing Crescent, 40% visible
METAR K4O4 220035Z AUTO 09006KT 10SM BKN006 OVC023 12/11 A2997 RMK AO2 P0001

Get Your Daily Forecast Email!

Thanks for signing up!

Be on the lookout for a verification email in your inbox.

You'll start receiving severe weather alerts in your inbox..

×

10-Day Weather Forecast

Almanac

Astronomy

Apr. 21, 2018 Rise Set
Actual Time
Civil Twilight
Nautical Twilight
Astronomical Twilight
Moon
Length of Visible Light
Length of Day
Tomorrow will be .
, % of the Moon is Illuminated

Today's Extremes

State Highs State Lows

Community

WunderPhotos

Category 6

Welcome to Category 6. This is the collective home for Weather Underground's featured writeups by Dr. Jeff Masters (right), Bob Henson (left), Chris Burt, and other regular contributors.

Nearby

Air Quality

  Air Quality AQ Index Pollutant
Not available.

Snow Depth

Station Depth Elevation

Earthquake Activity

City Distance Mag. Time & Date
Minimum magnitude displayed is 2.5.

Coastal Water Temperatures

Place Temperature

Stations

Nearby Weather Stations

Station Location Temp. Windchill Dew Point Humidity Wind Precip. Elev Updated Type
                   

Watches & Warnings

Flood Warning
Issued: 9:05 AM CDT Apr. 21, 2018 – National Weather Service

The National Weather Service in Shreveport has issued a

* Flood Warning for
the Sulphur river near Talco.
* From Sunday evening to late Tuesday night... or until the warning is
cancelled.
* At 8:45 am Saturday the stage was 2.4 feet.
* Minor flooding is forecast.
* Flood stage is 20.0 feet.
* Forecast... rise above flood stage by tomorrow late evening and
continue to rise to near 23.0 feet by Monday early afternoon. The
river will fall below flood stage by Tuesday morning.


Lat... Lon 3338 9530 3341 9488 3331 9466 3326 9466 3331 9478


25